Flight Track Log - Related Links

Times and Time Zones

All times are in EDT time to prevent confusion due to time zone crossing. See the N28KP flight status page for this flight to view local times or setup timezone preferences in your user account.

Time Position Orientation Groundspeed Altitude Reporting Facility
EDT Latitude Longitude Course Direction KTS MPH feet Rate Location/Type
Tue 11:58:37 PM 47.5056 -122.2814 142° Southeast 113 130 1,000  Level Seattle Center
Tue 11:59:20 PM 47.4867 -122.2592 146° Southeast 130 150 2,100 1,043 Climbing Seattle Center
Tue 11:59:46 PM 47.4722 -122.2428 143° Southeast 132 152 2,200 1,172 Climbing Seattle Center
Wed 12:00:47 AM 47.4464 -122.1847 123° Southeast 165 190 3,800 1,525 Climbing Seattle Center
Wed 12:01:48 AM 47.4317 -122.1239 110° East 159 183 5,300 1,672 Climbing Seattle Center
Wed 12:02:49 AM 47.4353 -122.0503 86° East 167 192 7,200 1,587 Climbing Seattle Center
Wed 12:03:49 AM 47.4367 -121.9864 88° East 158 182 8,500 1,388 Climbing Seattle Center
Wed 12:04:50 AM 47.4356 -121.9178 91° East 166 191 10,000 1,426 Climbing Seattle Center
Wed 12:05:51 AM 47.4369 -121.8478 88° East 170 196 11,400 1,377 Climbing Seattle Center
Wed 12:06:52 AM 47.4358 -121.7772 91° East 172 198 12,800 1,388 Climbing Seattle Center
Wed 12:07:52 AM 47.4353 -121.7028 91° East 181 208 14,200 1,339 Climbing Seattle Center
Wed 12:08:53 AM 47.4356 -121.6222 90° East 184 212 15,500 1,279 Climbing Seattle Center
Wed 12:09:54 AM 47.4333 -121.5447 92° East 190 219 16,800 1,230 Climbing Seattle Center
Wed 12:10:55 AM 47.4328 -121.4803 91° East 190 219 18,000 1,190 Climbing Seattle Center
Wed 12:11:55 AM 47.4331 -121.4006 90° East 194 223 19,200 1,140 Climbing Seattle Center
Wed 12:12:56 AM 47.4331 -121.3189 90° East 196 226 20,300 1,082 Climbing Seattle Center
Wed 12:13:57 AM 47.4300 -121.2169 92° East 205 236 21,400 1,041 Climbing Seattle Center
Wed 12:14:57 AM 47.4272 -121.1267 93° East 217 250 22,400 793 Climbing Seattle Center
Wed 12:15:58 AM 47.4253 -121.0369 92° East 220 253 23,000 295 Climbing Seattle Center
Wed 12:16:59 AM 47.4197 -120.9358 95° East 239 275 23,000  Level Seattle Center
Wed 12:18:00 AM 47.4133 -120.8292 95° East 256 295 23,000  Level Seattle Center
Wed 12:19:00 AM 47.4075 -120.7206 94° East 264 304 23,000  Level Seattle Center
Wed 12:20:01 AM 47.4056 -120.6089 91° East 270 311 23,000  Level Seattle Center
Wed 12:21:02 AM 47.4031 -120.5008 92° East 265 305 23,000  Level Seattle Center
Wed 12:22:02 AM 47.4031 -120.3900 90° East 270 311 23,000  Level Seattle Center
Wed 12:23:03 AM 47.4011 -120.2814 91° East 267 307 23,000  Level Seattle Center
Wed 12:24:04 AM 47.4008 -120.1739 90° East 264 304 23,000  Level Seattle Center
Wed 12:25:04 AM 47.3986 -120.0650 92° East 266 306 23,000  Level Seattle Center
Wed 12:26:05 AM 47.3972 -119.9569 91° East 265 305 23,000  Level Seattle Center
Wed 12:27:06 AM 47.3925 -119.8492 94° East 264 304 23,000  Level Seattle Center
Wed 12:28:06 AM 47.3883 -119.7403 93° East 266 306 23,000  Level Seattle Center
Wed 12:29:07 AM 47.3831 -119.6311 94° East 267 307 23,000  Level Seattle Center
Wed 12:30:08 AM 47.3792 -119.5222 93° East 267 307 23,000  Level Seattle Center
Wed 12:31:08 AM 47.3764 -119.3917 92° East 266 306 23,000  Level Seattle Center
Wed 12:32:09 AM 47.3744 -119.2864 92° East 261 300 23,000  Level Seattle Center
Wed 12:33:10 AM 47.3669 -119.1758 96° East 267 307 23,000  Level Seattle Center
Wed 12:34:10 AM 47.3625 -119.0694 93° East 263 303 23,000  Level Seattle Center
Wed 12:35:11 AM 47.3514 -118.9639 99° East 262 302 23,000  Level Seattle Center
Wed 12:36:12 AM 47.3428 -118.8572 97° East 263 303 23,000  Level Seattle Center
Wed 12:37:12 AM 47.3369 -118.7497 95° East 263 303 23,000  Level Seattle Center
Wed 12:38:13 AM 47.3283 -118.6422 97° East 265 305 23,000  Level Seattle Center
Wed 12:39:14 AM 47.3192 -118.5347 97° East 265 305 23,000  Level Seattle Center
Wed 12:40:14 AM 47.3111 -118.4278 96° East 264 304 23,000  Level Seattle Center
Wed 12:41:15 AM 47.3053 -118.3214 95° East 262 302 23,000  Level Seattle Center
Wed 12:42:16 AM 47.2967 -118.2133 97° East 265 305 23,000  Level Seattle Center
Wed 12:43:16 AM 47.2875 -118.1081 97° East 263 303 23,000  Level Seattle Center
Wed 12:44:17 AM 47.2783 -118.0019 97° East 262 302 23,000  Level Seattle Center
Wed 12:45:18 AM 47.2694 -117.8961 97° East 262 302 23,000  Level Seattle Center
Wed 12:46:18 AM 47.2603 -117.7908 97° East 261 300 23,000  Level Seattle Center
Wed 12:47:19 AM 47.2511 -117.6872 97° East 259 298 23,000  Level Seattle Center
Wed 12:48:19 AM 47.2403 -117.5614 97° East 259 298 23,000  Level Seattle Center
Wed 12:49:20 AM 47.2294 -117.4589 99° East 257 296 23,000  Level Seattle Center
Wed 12:50:21 AM 47.2208 -117.3539 97° East 261 300 23,000  Level Seattle Center
Wed 12:51:21 AM 47.2119 -117.2503 97° East 260 299 23,000  Level Seattle Center
Wed 12:52:22 AM 47.2033 -117.1464 97° East 258 297 23,000  Level Seattle Center
Wed 12:53:22 AM 47.1925 -117.0425 99° East 260 299 23,000  Level Seattle Center
Wed 12:54:23 AM 47.1833 -116.9397 97° East 257 296 23,000  Level Seattle Center
Wed 12:55:23 AM 47.1742 -116.8358 97° East 258 297 23,000 -248 Level Seattle Center
Wed 12:56:24 AM 47.1631 -116.7342 99° East 256 295 22,500  Descending Seattle Center
Wed 12:57:24 AM 47.1533 -116.6336 98° East 252 290 23,000 248 Climbing Seattle Center
Wed 12:58:25 AM 47.1453 -116.5328 97° East 251 289 23,000  Level Seattle Center
Wed 12:59:27 AM 47.1353 -116.4314 98° East 251 289 23,000  Level Seattle Center
Wed 01:00:27 AM 47.1233 -116.3311 100° East 250 288 23,000  Level Seattle Center
Wed 01:01:28 AM 47.1125 -116.2092 97° East 251 289 23,000  Level Seattle Center
Wed 01:02:28 AM 47.1031 -116.1083 98° East 251 289 23,000  Level Seattle Center
Wed 01:03:29 AM 47.0925 -116.0075 99° East 251 289 23,000  Level Seattle Center
Wed 01:04:30 AM 47.0814 -115.9056 99° East 254 292 23,000  Level Seattle Center
Wed 01:05:30 AM 47.0708 -115.8033 99° East 256 295 23,000  Level Seattle Center
Wed 01:06:31 AM 47.0603 -115.7014 99° East 254 292 23,000  Level Seattle Center
Wed 01:07:31 AM 47.0494 -115.6003 99° East 253 291 23,000  Level Seattle Center
Wed 01:08:32 AM 47.0386 -115.4969 99° East 255 293 23,000  Level Seattle Center
Wed 01:09:32 AM 47.0283 -115.3978 99° East 251 289 23,000  Level Seattle Center
Wed 01:10:32 AM 47.0208 -115.2919 96° East 251 289 23,000  Level Seattle Center
Wed 01:11:33 AM 47.0106 -115.1933 99° East 248 285 23,000  Level Seattle Center
Wed 01:12:33 AM 46.9978 -115.0936 101° East 249 287 23,000  Level Seattle Center
Wed 01:13:34 AM 46.9897 -114.9925 97° East 250 288 23,000  Level Seattle Center
Wed 01:14:34 AM 46.9781 -114.8928 100° East 251 289 23,000  Level Seattle Center
Wed 01:15:35 AM 46.9669 -114.7922 99° East 251 289 23,000  Level Seattle Center
Wed 01:16:35 AM 46.9553 -114.6908 100° East 253 291 23,000  Level Seattle Center
Wed 01:17:35 AM 46.9450 -114.5897 98° East 253 291 23,000  Level Seattle Center
Wed 01:18:36 AM 46.9333 -114.4881 100° East 254 292 23,000  Level Seattle Center
Wed 01:19:36 AM 46.9217 -114.3867 100° East 255 293 23,000  Level Seattle Center
Wed 01:20:37 AM 46.9103 -114.2844 99° East 256 295 23,000  Level Seattle Center
Wed 01:21:37 AM 46.8986 -114.1833 100° East 255 293 23,000  Level Seattle Center
Wed 01:22:37 AM 46.8881 -114.0800 98° East 257 296 23,000 -99 Level Seattle Center
Wed 01:23:38 AM 46.8750 -113.9769 100° East 259 298 22,800 -446 Descending Seattle Center
Wed 01:24:38 AM 46.8608 -113.8711 101° East 265 305 22,100 -744 Descending Seattle Center
Wed 01:25:39 AM 46.8464 -113.7594 101° East 276 318 21,300 -744 Descending Seattle Center
Wed 01:26:39 AM 46.8333 -113.6450 99° East 283 326 20,600 -857 Descending Seattle Center
Wed 01:27:52 AM 46.8167 -113.4853 99° East 288 331 19,400 -1,038 Descending Salt Lake Center
Wed 01:28:52 AM 46.8017 -113.3697 101° East 291 335 18,300 -1,041 Descending Salt Lake Center
Wed 01:29:53 AM 46.7875 -113.2536 100° East 291 335 17,300 -1,091 Descending Salt Lake Center
Wed 01:30:53 AM 46.7731 -113.1408 101° East 285 328 16,100 -992 Descending Salt Lake Center
Wed 01:31:54 AM 46.7592 -113.0283 100° East 281 323 15,300 -1,240 Descending Salt Lake Center
Wed 01:32:54 AM 46.7458 -112.9211 100° East 273 314 13,600 -1,537 Descending Salt Lake Center
Wed 01:33:55 AM 46.7319 -112.8286 102° East 264 304 12,200 -1,240 Descending Salt Lake Center
Wed 01:34:55 AM 46.7164 -112.7308 103° East 256 295 11,100 -595 Descending Salt Lake Center
Wed 01:35:56 AM 46.7017 -112.6200 101° East 251 289 11,000 -595 Descending Salt Lake Center
Wed 01:36:56 AM 46.6900 -112.5575 105° East 211 243 9,900 -595 Descending Salt Lake Center
Wed 01:37:57 AM 46.6739 -112.4858 108° East 207 238 9,800 -248 Descending Salt Lake Center
Wed 01:38:57 AM 46.6575 -112.4103 108° East 203 234 9,400 -496 Descending Salt Lake Center
Wed 01:39:58 AM 46.6525 -112.3339 95° East 200 230 8,800 -590 Descending Salt Lake Center
Wed 01:41:00 AM 46.6429 -112.2332 102° East  Level FlightAware Approximate
Wed 01:48:00 AM 46.6068 -111.9827 106° East  Level Estimated
Wed 01:49:00 AM 46.6068 -111.9827 106° East  Level Estimated
Wed 01:50:00 AM 46.6068 -111.9827 106° East  Level Estimated
Wed 01:51:00 AM 46.6068 -111.9827 106° East  Level Estimated
Wed 01:52:00 AM 46.6068 -111.9827 106° East  Level Estimated
Wed 01:53:00 AM 46.6068 -111.9827 106° East  Level Estimated

Login

Don't have an account? Register now (free) for customized features, flight alerts, and more!